createdAt,value
2018-05-31T00:00:19.307Z,0
2018-05-31T00:01:29.336Z,0
2018-05-31T00:02:39.074Z,0
2018-05-31T00:03:49.090Z,0
2018-05-31T00:04:59.122Z,0
2018-05-31T00:06:08.888Z,0
2018-05-31T00:07:18.912Z,0
2018-05-31T00:08:28.700Z,0
2018-05-31T00:09:38.715Z,0
2018-05-31T00:10:48.717Z,0
2018-05-31T00:11:58.757Z,0
2018-05-31T00:13:08.826Z,0
2018-05-31T00:14:18.598Z,0
2018-05-31T00:15:28.620Z,0
2018-05-31T00:16:38.371Z,0
2018-05-31T00:17:48.406Z,0
2018-05-31T00:18:58.431Z,0
2018-05-31T00:20:09.060Z,0
2018-05-31T00:21:20.252Z,0
2018-05-31T00:22:31.097Z,0
2018-05-31T00:23:41.541Z,0
2018-05-31T00:24:51.561Z,0
2018-05-31T00:26:01.057Z,0
2018-05-31T00:27:11.118Z,0
2018-05-31T00:28:20.865Z,0
2018-05-31T00:29:30.621Z,0
2018-05-31T00:30:40.695Z,0
2018-05-31T00:31:50.715Z,0
2018-05-31T00:33:00.722Z,0
2018-05-31T00:34:10.737Z,0
2018-05-31T00:35:20.758Z,0
2018-05-31T00:36:30.505Z,0
2018-05-31T00:37:40.531Z,0
2018-05-31T00:38:50.566Z,0
2018-05-31T00:40:00.584Z,0
2018-05-31T00:41:10.624Z,0
2018-05-31T00:42:20.660Z,0
2018-05-31T00:43:30.424Z,0
2018-05-31T00:44:40.437Z,0
2018-05-31T00:45:50.178Z,0
2018-05-31T00:47:00.215Z,0
2018-05-31T00:48:10.041Z,0
2018-05-31T00:49:23.332Z,0
2018-05-31T00:50:34.385Z,0
2018-05-31T00:51:44.166Z,0
2018-05-31T00:52:54.208Z,0
2018-05-31T00:54:03.976Z,0
2018-05-31T00:55:14.025Z,0
2018-05-31T00:56:24.046Z,0
2018-05-31T00:57:34.071Z,0
2018-05-31T00:58:44.107Z,0
2018-05-31T00:59:53.868Z,0
2018-05-31T01:01:03.912Z,0
2018-05-31T01:02:13.667Z,0
2018-05-31T01:03:23.688Z,0
2018-05-31T01:04:33.705Z,0
2018-05-31T01:05:43.734Z,0
2018-05-31T01:06:53.762Z,0
2018-05-31T01:08:03.789Z,0
2018-05-31T01:09:13.544Z,0
2018-05-31T01:10:23.564Z,0
2018-05-31T01:11:33.588Z,0
2018-05-31T01:12:43.600Z,0
2018-05-31T01:13:53.356Z,0
2018-05-31T01:15:03.378Z,0
2018-05-31T01:16:14.301Z,0
2018-05-31T01:17:25.992Z,0
2018-05-31T01:18:37.001Z,0
2018-05-31T01:19:47.144Z,0
2018-05-31T01:20:57.186Z,0
2018-05-31T01:22:07.208Z,0
2018-05-31T01:23:17.249Z,0
2018-05-31T01:24:26.749Z,0
2018-05-31T01:25:36.770Z,0
2018-05-31T01:26:46.528Z,0
2018-05-31T01:27:56.289Z,0
2018-05-31T01:29:06.337Z,0
2018-05-31T01:30:16.402Z,0
2018-05-31T01:31:26.420Z,0
2018-05-31T01:32:36.174Z,0
2018-05-31T01:33:45.930Z,0
2018-05-31T01:34:55.961Z,0
2018-05-31T01:36:05.707Z,0
2018-05-31T01:37:15.448Z,0
2018-05-31T01:38:25.488Z,0
2018-05-31T01:39:35.230Z,0
2018-05-31T01:40:44.992Z,0
2018-05-31T01:41:55.089Z,0
2018-05-31T01:43:04.844Z,0
2018-05-31T01:44:14.867Z,0
2018-05-31T01:45:24.905Z,0
2018-05-31T01:46:34.922Z,0
2018-05-31T01:47:46.657Z,0
2018-05-31T01:48:57.334Z,0
2018-05-31T01:50:07.457Z,0
2018-05-31T01:51:17.498Z,0
2018-05-31T01:52:27.540Z,0
2018-05-31T01:53:37.570Z,0
2018-05-31T01:54:47.315Z,0
2018-05-31T01:55:57.337Z,0
2018-05-31T01:57:07.348Z,0
2018-05-31T01:58:17.364Z,0
2018-05-31T01:59:26.850Z,0
2018-05-31T02:00:36.586Z,0
2018-05-31T02:01:46.614Z,0
2018-05-31T02:02:56.666Z,0
2018-05-31T02:04:06.456Z,0
2018-05-31T02:05:16.224Z,0
2018-05-31T02:06:26.273Z,0
2018-05-31T02:07:36.279Z,0
2018-05-31T02:08:46.325Z,0
2018-05-31T02:09:56.091Z,0
2018-05-31T02:11:06.136Z,0
2018-05-31T02:12:16.156Z,0
2018-05-31T02:13:26.180Z,0
2018-05-31T02:14:36.198Z,0
2018-05-31T02:15:47.829Z,0
2018-05-31T02:16:58.892Z,0
2018-05-31T02:18:09.772Z,0
2018-05-31T02:19:19.841Z,0
2018-05-31T02:20:29.613Z,0
2018-05-31T02:21:39.385Z,0
2018-05-31T02:22:49.384Z,0
2018-05-31T02:23:58.878Z,0
2018-05-31T02:25:08.901Z,0
2018-05-31T02:26:18.932Z,0
2018-05-31T02:27:28.939Z,0
2018-05-31T02:28:38.979Z,0
2018-05-31T02:29:48.777Z,0
2018-05-31T02:30:58.830Z,0
2018-05-31T02:32:08.862Z,0
2018-05-31T02:33:18.873Z,0
2018-05-31T02:34:28.617Z,0
2018-05-31T02:35:38.622Z,0
2018-05-31T02:36:48.649Z,0
2018-05-31T02:37:58.666Z,0
2018-05-31T02:39:08.718Z,0
2018-05-31T02:40:18.764Z,5
2018-05-31T02:41:28.510Z,5
2018-05-31T02:42:38.564Z,5
2018-05-31T02:43:48.305Z,5
2018-05-31T02:44:59.510Z,5
2018-05-31T02:46:11.145Z,5
2018-05-31T02:47:22.098Z,5
2018-05-31T02:48:32.406Z,10
2018-05-31T02:49:42.433Z,10
2018-05-31T02:50:52.180Z,10
2018-05-31T02:52:02.203Z,10
2018-05-31T02:53:12.253Z,10
2018-05-31T02:54:22.272Z,15
2018-05-31T02:55:32.255Z,15
2018-05-31T02:56:42.257Z,15
2018-05-31T02:57:51.997Z,15
2018-05-31T02:59:02.033Z,20
2018-05-31T03:00:11.524Z,20
2018-05-31T03:01:21.591Z,20
2018-05-31T03:02:31.613Z,25
2018-05-31T03:03:41.638Z,25
2018-05-31T03:04:51.386Z,25
2018-05-31T03:06:01.136Z,30
2018-05-31T03:07:11.232Z,30
2018-05-31T03:08:21.006Z,30
2018-05-31T03:09:31.024Z,35
2018-05-31T03:10:41.021Z,35
2018-05-31T03:11:51.080Z,35
2018-05-31T03:13:01.141Z,40
2018-05-31T03:14:11.689Z,40
2018-05-31T03:15:23.273Z,40
2018-05-31T03:16:34.672Z,45
2018-05-31T03:17:45.161Z,45
2018-05-31T03:18:54.934Z,50
2018-05-31T03:20:04.698Z,50
2018-05-31T03:21:14.187Z,55
2018-05-31T03:22:23.928Z,55
2018-05-31T03:23:33.968Z,60
2018-05-31T03:24:44.019Z,60
2018-05-31T03:25:54.033Z,65
2018-05-31T03:27:04.061Z,65
2018-05-31T03:28:14.084Z,70
2018-05-31T03:29:24.097Z,70
2018-05-31T03:30:33.878Z,75
2018-05-31T03:31:43.627Z,75
2018-05-31T03:32:53.648Z,80
2018-05-31T03:34:03.791Z,80
2018-05-31T03:35:13.820Z,85
2018-05-31T03:36:23.578Z,85
2018-05-31T03:37:33.613Z,90
2018-05-31T03:38:43.356Z,90
2018-05-31T03:39:53.427Z,90
2018-05-31T03:41:03.459Z,95
2018-05-31T03:42:13.501Z,95
2018-05-31T03:43:23.517Z,100
2018-05-31T03:44:33.266Z,100
2018-05-31T03:45:43.663Z,105
2018-05-31T03:46:54.744Z,105
2018-05-31T03:48:05.719Z,110
2018-05-31T03:49:15.498Z,110
2018-05-31T03:50:25.257Z,110
2018-05-31T03:51:35.298Z,115
2018-05-31T03:52:45.053Z,115
2018-05-31T03:53:55.072Z,120
2018-05-31T03:55:05.105Z,120
2018-05-31T03:56:15.149Z,125
2018-05-31T03:57:24.914Z,125
2018-05-31T03:58:34.654Z,125
2018-05-31T03:59:44.679Z,130
2018-05-31T04:00:54.450Z,130
2018-05-31T04:02:04.201Z,130
2018-05-31T04:03:13.968Z,135
2018-05-31T04:04:23.716Z,135
2018-05-31T04:05:33.731Z,135
2018-05-31T04:06:43.785Z,140
2018-05-31T04:07:53.804Z,140
2018-05-31T04:09:03.560Z,140
2018-05-31T04:10:13.582Z,145
2018-05-31T04:11:23.329Z,145
2018-05-31T04:12:33.359Z,150
2018-05-31T04:13:43.389Z,150
2018-05-31T04:14:53.155Z,150
2018-05-31T04:16:03.196Z,155
2018-05-31T04:17:14.379Z,155
2018-05-31T04:18:25.723Z,160
2018-05-31T04:19:36.788Z,160
2018-05-31T04:20:47.252Z,165
2018-05-31T04:21:56.737Z,165
2018-05-31T04:23:06.507Z,165
2018-05-31T04:24:16.529Z,165
2018-05-31T04:25:26.278Z,165
2018-05-31T04:26:36.027Z,170
2018-05-31T04:27:46.078Z,170
2018-05-31T04:28:55.831Z,175
2018-05-31T04:30:05.901Z,175
2018-05-31T04:31:15.941Z,180
2018-05-31T04:32:25.173Z,180
2018-05-31T04:33:35.276Z,185
2018-05-31T04:34:45.307Z,185
2018-05-31T04:35:55.360Z,185
2018-05-31T04:37:05.408Z,190
2018-05-31T04:38:15.438Z,190
2018-05-31T04:39:25.448Z,195
2018-05-31T04:40:35.232Z,195
2018-05-31T04:41:45.284Z,200
2018-05-31T04:42:55.311Z,200
2018-05-31T04:44:04.828Z,200
2018-05-31T04:45:14.855Z,200
2018-05-31T04:46:24.877Z,205
2018-05-31T04:47:34.911Z,205
2018-05-31T04:48:46.345Z,210
2018-05-31T04:49:56.337Z,210
2018-05-31T04:51:07.244Z,215
2018-05-31T04:52:17.402Z,215
2018-05-31T04:53:27.429Z,220
2018-05-31T04:54:37.462Z,220
2018-05-31T04:55:47.216Z,220
2018-05-31T04:56:57.227Z,225
2018-05-31T04:58:06.715Z,225
2018-05-31T04:59:16.737Z,225
2018-05-31T05:00:26.217Z,230
2018-05-31T05:01:36.275Z,230
2018-05-31T05:02:46.025Z,230
2018-05-31T05:03:56.051Z,235
2018-05-31T05:05:06.092Z,235
2018-05-31T05:06:16.133Z,235
2018-05-31T05:07:25.886Z,240
2018-05-31T05:08:35.647Z,240
2018-05-31T05:09:45.678Z,245
2018-05-31T05:10:55.433Z,245
2018-05-31T05:12:05.517Z,245
2018-05-31T05:13:15.526Z,245
2018-05-31T05:14:25.581Z,250
2018-05-31T05:15:35.345Z,250
2018-05-31T05:16:45.359Z,250
2018-05-31T05:17:55.385Z,250
2018-05-31T05:19:05.174Z,255
2018-05-31T05:20:15.727Z,255
2018-05-31T05:21:27.253Z,255
2018-05-31T05:22:38.274Z,260
2018-05-31T05:23:48.803Z,265
2018-05-31T05:24:58.562Z,260
2018-05-31T05:26:08.593Z,260
2018-05-31T05:27:18.094Z,260
2018-05-31T05:28:27.581Z,265
2018-05-31T05:29:37.593Z,265
2018-05-31T05:30:47.647Z,265
2018-05-31T05:31:57.672Z,270
2018-05-31T05:33:07.742Z,270
2018-05-31T05:34:17.544Z,270
2018-05-31T05:35:27.591Z,275
2018-05-31T05:36:37.613Z,275
2018-05-31T05:37:47.689Z,275
2018-05-31T05:38:57.716Z,280
2018-05-31T05:40:07.494Z,280
2018-05-31T05:41:17.520Z,280
2018-05-31T05:42:27.279Z,280
2018-05-31T05:43:37.334Z,285
2018-05-31T05:44:47.455Z,285
2018-05-31T05:45:57.270Z,285
2018-05-31T05:47:07.317Z,285
2018-05-31T05:48:17.069Z,285
2018-05-31T05:49:27.163Z,290
2018-05-31T05:50:36.926Z,290
2018-05-31T05:51:48.138Z,290
2018-05-31T05:52:59.747Z,290
2018-05-31T05:54:09.959Z,295
2018-05-31T05:55:20.537Z,295
2018-05-31T05:56:30.951Z,295
2018-05-31T05:57:40.794Z,295
2018-05-31T05:58:50.839Z,300
2018-05-31T06:00:00.584Z,300
2018-05-31T06:01:09.809Z,300
2018-05-31T06:02:19.592Z,300
2018-05-31T06:03:29.356Z,300
2018-05-31T06:04:39.124Z,305
2018-05-31T06:05:49.191Z,305
2018-05-31T06:06:59.235Z,305
2018-05-31T06:08:09.523Z,305
2018-05-31T06:09:19.032Z,310
2018-05-31T06:10:29.273Z,310
2018-05-31T06:11:39.053Z,310
2018-05-31T06:12:49.090Z,315
2018-05-31T06:13:59.158Z,315
2018-05-31T06:15:09.241Z,315
2018-05-31T06:16:19.284Z,320
2018-05-31T06:17:29.334Z,320
2018-05-31T06:18:39.598Z,320
2018-05-31T06:19:49.972Z,325
2018-05-31T06:21:00.070Z,325
2018-05-31T06:22:10.127Z,325
2018-05-31T06:23:21.356Z,330
2018-05-31T06:24:32.234Z,330
2018-05-31T06:25:43.581Z,335
2018-05-31T06:26:53.791Z,335
2018-05-31T06:28:03.875Z,335
2018-05-31T06:29:14.684Z,335
2018-05-31T06:30:24.748Z,335
2018-05-31T06:31:34.812Z,340
2018-05-31T06:32:44.600Z,340
2018-05-31T06:33:54.660Z,345
2018-05-31T06:35:04.659Z,345
2018-05-31T06:36:14.395Z,345
2018-05-31T06:37:24.611Z,345
2018-05-31T06:38:34.604Z,350
2018-05-31T06:39:44.628Z,350
2018-05-31T06:40:54.646Z,350
2018-05-31T06:42:04.913Z,355
2018-05-31T06:43:14.939Z,355
2018-05-31T06:44:24.943Z,355
2018-05-31T06:45:34.954Z,355
2018-05-31T06:46:44.946Z,360
2018-05-31T06:47:54.925Z,360
2018-05-31T06:49:04.867Z,360
2018-05-31T06:50:14.604Z,365
2018-05-31T06:51:24.602Z,365
2018-05-31T06:52:34.314Z,365
2018-05-31T06:53:44.306Z,370
2018-05-31T06:54:54.023Z,370
2018-05-31T06:56:04.021Z,370
2018-05-31T06:57:14.010Z,370
2018-05-31T06:58:24.020Z,380
2018-05-31T06:59:33.755Z,375
2018-05-31T07:00:43.753Z,375
2018-05-31T07:01:53.751Z,380
2018-05-31T07:03:03.731Z,380
2018-05-31T07:04:13.722Z,385
2018-05-31T07:05:23.457Z,385
2018-05-31T07:06:33.439Z,385
2018-05-31T07:07:43.216Z,385
2018-05-31T07:08:53.198Z,385
2018-05-31T07:10:02.912Z,390
2018-05-31T07:11:12.906Z,390
2018-05-31T07:12:22.880Z,390
2018-05-31T07:13:32.897Z,390
2018-05-31T07:14:42.885Z,395
2018-05-31T07:15:52.960Z,395
2018-05-31T07:17:02.991Z,395
2018-05-31T07:18:12.976Z,395
2018-05-31T07:19:22.966Z,400
2018-05-31T07:20:32.986Z,400
2018-05-31T07:21:43.013Z,400
2018-05-31T07:22:53.010Z,405
2018-05-31T07:24:03.008Z,405
2018-05-31T07:25:12.996Z,405
2018-05-31T07:26:22.988Z,405
2018-05-31T07:27:32.994Z,410
2018-05-31T07:28:42.975Z,410
2018-05-31T07:29:53.073Z,415
2018-05-31T07:31:03.064Z,415
2018-05-31T07:32:13.086Z,420
2018-05-31T07:33:23.082Z,420
2018-05-31T07:34:32.824Z,425
2018-05-31T07:35:42.565Z,425
2018-05-31T07:36:52.562Z,430
2018-05-31T07:38:02.577Z,430
2018-05-31T07:39:12.590Z,435
2018-05-31T07:40:22.585Z,435
2018-05-31T07:41:32.569Z,435
2018-05-31T07:42:42.292Z,440
2018-05-31T07:43:52.047Z,440
2018-05-31T07:45:02.030Z,445
2018-05-31T07:46:12.028Z,445
2018-05-31T07:47:22.096Z,450
2018-05-31T07:48:32.094Z,450
2018-05-31T07:49:42.095Z,455
2018-05-31T07:50:51.813Z,455
2018-05-31T07:52:01.542Z,455
2018-05-31T07:53:11.549Z,460
2018-05-31T07:54:21.563Z,465
2018-05-31T07:55:31.556Z,470
2018-05-31T07:56:41.559Z,465
2018-05-31T07:57:51.544Z,475
2018-05-31T07:59:01.544Z,475
2018-05-31T08:00:11.559Z,475
2018-05-31T08:01:21.556Z,475
2018-05-31T08:02:31.568Z,475
2018-05-31T08:03:41.318Z,475
2018-05-31T08:04:51.086Z,475
2018-05-31T08:06:01.479Z,480
2018-05-31T08:07:11.327Z,480
2018-05-31T08:08:21.102Z,485
2018-05-31T08:09:31.143Z,485
2018-05-31T08:10:41.151Z,485
2018-05-31T08:11:50.920Z,490
2018-05-31T08:13:00.926Z,495
2018-05-31T08:14:10.917Z,495
2018-05-31T08:15:20.921Z,500
2018-05-31T08:16:30.940Z,500
2018-05-31T08:17:41.008Z,505
2018-05-31T08:18:50.750Z,505
2018-05-31T08:19:59.971Z,510
2018-05-31T08:21:09.973Z,510
2018-05-31T08:22:19.950Z,515
2018-05-31T08:23:29.444Z,520
2018-05-31T08:24:39.431Z,520
2018-05-31T08:25:49.436Z,525
2018-05-31T08:26:59.439Z,530
2018-05-31T08:28:09.199Z,535
2018-05-31T08:29:18.994Z,540
2018-05-31T08:30:28.776Z,655
2018-05-31T08:31:39.362Z,1020
2018-05-31T08:32:49.385Z,1145
2018-05-31T08:33:59.403Z,1160
2018-05-31T08:35:08.940Z,1235
2018-05-31T08:36:18.912Z,1250
2018-05-31T08:37:28.658Z,1220
2018-05-31T08:38:38.670Z,1230
2018-05-31T08:39:48.669Z,1235
2018-05-31T08:40:58.865Z,1390
2018-05-31T08:42:08.847Z,1290
2018-05-31T08:43:18.599Z,1165
2018-05-31T08:44:28.592Z,1230
2018-05-31T08:45:38.585Z,1260
2018-05-31T08:46:48.570Z,1325
2018-05-31T08:47:58.586Z,1340
2018-05-31T08:49:08.327Z,1365
2018-05-31T08:50:18.328Z,1330
2018-05-31T08:51:28.331Z,1330
2018-05-31T08:52:37.838Z,1425
2018-05-31T08:53:47.589Z,1460
2018-05-31T08:54:57.324Z,1380
2018-05-31T08:56:07.264Z,1420
2018-05-31T08:57:16.765Z,1495
2018-05-31T08:58:26.251Z,1445
2018-05-31T08:59:36.245Z,1505
2018-05-31T09:00:45.958Z,1430
2018-05-31T09:01:55.964Z,1515
2018-05-31T09:03:05.716Z,1530
2018-05-31T09:04:15.727Z,1530
2018-05-31T09:05:25.744Z,1545
2018-05-31T09:06:35.781Z,1525
2018-05-31T09:07:45.793Z,1575
2018-05-31T09:08:55.820Z,1570
2018-05-31T09:10:05.545Z,1580
2018-05-31T09:11:15.538Z,1620
2018-05-31T09:12:25.540Z,1620
2018-05-31T09:13:35.317Z,1645
2018-05-31T09:14:45.314Z,1625
2018-05-31T09:15:55.048Z,1710
2018-05-31T09:17:05.091Z,1710
2018-05-31T09:18:14.829Z,1615
2018-05-31T09:19:24.840Z,1640
2018-05-31T09:20:34.832Z,1665
2018-05-31T09:21:44.842Z,1550
2018-05-31T09:22:54.869Z,1610
2018-05-31T09:24:04.870Z,1650
2018-05-31T09:25:14.841Z,1715
2018-05-31T09:26:24.567Z,1755
2018-05-31T09:27:34.565Z,1765
2018-05-31T09:28:44.688Z,1830
2018-05-31T09:29:54.678Z,1825
2018-05-31T09:31:04.675Z,1795
2018-05-31T09:32:14.458Z,1815
2018-05-31T09:33:24.446Z,1825
2018-05-31T09:34:34.440Z,1815
2018-05-31T09:35:44.432Z,1875
2018-05-31T09:36:54.429Z,1925
2018-05-31T09:38:04.446Z,1815
2018-05-31T09:39:14.433Z,1755
2018-05-31T09:40:23.936Z,1800
2018-05-31T09:41:33.953Z,1900
2018-05-31T09:42:43.703Z,1975
2018-05-31T09:43:53.446Z,1980
2018-05-31T09:45:03.458Z,1970
2018-05-31T09:46:13.498Z,1950
2018-05-31T09:47:23.565Z,1980
2018-05-31T09:48:33.585Z,2020
2018-05-31T09:49:43.584Z,2025
2018-05-31T09:50:53.329Z,2075
2018-05-31T09:52:03.355Z,2060
2018-05-31T09:53:13.353Z,2035
2018-05-31T09:54:23.429Z,2040
2018-05-31T09:55:33.434Z,2075
2018-05-31T09:56:43.470Z,2135
2018-05-31T09:57:53.221Z,2015
2018-05-31T09:59:03.228Z,2025
2018-05-31T10:00:13.217Z,2090
2018-05-31T10:01:23.227Z,2105
2018-05-31T10:02:33.247Z,2035
2018-05-31T10:03:43.243Z,2000
2018-05-31T10:04:53.253Z,2225
2018-05-31T10:06:03.266Z,2210
2018-05-31T10:07:13.010Z,2220
2018-05-31T10:08:22.777Z,2190
2018-05-31T10:09:32.772Z,2150
2018-05-31T10:10:42.803Z,2170
2018-05-31T10:11:52.802Z,2210
2018-05-31T10:13:02.534Z,2200
2018-05-31T10:14:12.548Z,2215
2018-05-31T10:15:22.033Z,2295
2018-05-31T10:16:31.518Z,2350
2018-05-31T10:17:41.265Z,2255
2018-05-31T10:18:50.995Z,2175
2018-05-31T10:20:00.753Z,2320
2018-05-31T10:21:10.753Z,2500
2018-05-31T10:22:20.778Z,2265
2018-05-31T10:23:30.877Z,2285
2018-05-31T10:24:40.906Z,2340
2018-05-31T10:25:50.657Z,2360
2018-05-31T10:27:00.399Z,2395
2018-05-31T10:28:10.125Z,2360
2018-05-31T10:29:20.116Z,2320
2018-05-31T10:30:30.104Z,2375
2018-05-31T10:31:40.103Z,2295
2018-05-31T10:32:49.855Z,2205
2018-05-31T10:33:59.852Z,2245
2018-05-31T10:35:09.878Z,2285
2018-05-31T10:36:19.882Z,2400
2018-05-31T10:37:29.623Z,2460
2018-05-31T10:38:39.635Z,2430
2018-05-31T10:39:49.643Z,2590
2018-05-31T10:40:59.644Z,2705
2018-05-31T10:42:09.627Z,2610
2018-05-31T10:43:19.628Z,2485
2018-05-31T10:44:29.656Z,2520
2018-05-31T10:45:39.411Z,2520
2018-05-31T10:46:49.407Z,2575
2018-05-31T10:47:59.427Z,2615
2018-05-31T10:49:09.472Z,2605
2018-05-31T10:50:19.216Z,2555
2018-05-31T10:51:28.964Z,2630
2018-05-31T10:52:38.718Z,2695
2018-05-31T10:53:49.253Z,2620
2018-05-31T10:54:59.308Z,2535
2018-05-31T10:56:09.309Z,2540
2018-05-31T10:57:19.310Z,2600
2018-05-31T10:58:29.326Z,2710
2018-05-31T10:59:39.338Z,2805
2018-05-31T11:00:49.355Z,2840
2018-05-31T11:01:59.365Z,2795
2018-05-31T11:03:09.367Z,2710
2018-05-31T11:04:19.360Z,2650
2018-05-31T11:05:29.365Z,2595
2018-05-31T11:06:39.353Z,2620
2018-05-31T11:07:49.353Z,2715
2018-05-31T11:08:59.090Z,2770
2018-05-31T11:10:09.085Z,2730
2018-05-31T11:11:18.574Z,2765
2018-05-31T11:12:28.576Z,2855
2018-05-31T11:13:38.561Z,2935
2018-05-31T11:14:48.572Z,2920
2018-05-31T11:15:58.584Z,2820
2018-05-31T11:17:08.055Z,2835
2018-05-31T11:18:18.056Z,920
2018-05-31T11:19:28.060Z,1430
2018-05-31T11:20:38.074Z,2615
2018-05-31T11:21:48.368Z,1665
2018-05-31T11:22:58.390Z,2790
2018-05-31T11:24:08.403Z,2785
2018-05-31T11:25:18.405Z,2875
2018-05-31T11:26:28.428Z,2860
2018-05-31T11:27:38.458Z,2735
2018-05-31T11:28:48.767Z,2890
2018-05-31T11:29:58.532Z,2685
2018-05-31T11:31:08.526Z,2845
2018-05-31T11:32:18.270Z,2465
2018-05-31T11:33:28.032Z,3015
2018-05-31T11:34:38.041Z,3105
2018-05-31T11:35:48.077Z,2945
2018-05-31T11:36:58.096Z,3015
2018-05-31T11:38:08.093Z,3040
2018-05-31T11:39:18.114Z,2905
2018-05-31T11:40:28.131Z,2500
2018-05-31T11:41:38.311Z,1320
2018-05-31T11:42:48.069Z,2920
2018-05-31T11:43:58.061Z,2985
2018-05-31T11:45:08.116Z,2830
2018-05-31T11:46:18.102Z,1245
2018-05-31T11:47:28.121Z,1075
2018-05-31T11:48:37.872Z,1230
2018-05-31T11:49:47.864Z,2430
2018-05-31T11:50:57.603Z,3050
2018-05-31T11:52:07.599Z,2555
2018-05-31T11:53:17.615Z,1795
2018-05-31T11:54:27.625Z,1255
2018-05-31T11:55:37.623Z,3015
2018-05-31T11:56:47.372Z,3070
2018-05-31T11:57:57.137Z,3060
2018-05-31T11:59:07.144Z,1670
2018-05-31T12:00:16.885Z,3020
2018-05-31T12:01:26.942Z,2990
2018-05-31T12:02:36.990Z,2980
2018-05-31T12:03:47.171Z,3050
2018-05-31T12:04:56.998Z,3060
2018-05-31T12:06:06.988Z,3045
2018-05-31T12:07:16.972Z,3025
2018-05-31T12:08:27.294Z,3050
2018-05-31T12:09:37.319Z,3035
2018-05-31T12:10:47.385Z,3090
2018-05-31T12:11:57.394Z,3140
2018-05-31T12:13:07.373Z,3180
2018-05-31T12:14:17.105Z,3120
2018-05-31T12:15:27.106Z,3060
2018-05-31T12:16:36.849Z,3090
2018-05-31T12:17:47.041Z,3140
2018-05-31T12:18:57.036Z,3165
2018-05-31T12:20:07.037Z,3140
2018-05-31T12:21:16.770Z,3090
2018-05-31T12:22:26.243Z,3080
2018-05-31T12:23:36.257Z,3105
2018-05-31T12:24:46.487Z,3090
2018-05-31T12:25:56.229Z,3035
2018-05-31T12:27:05.984Z,2970
2018-05-31T12:28:15.977Z,2960
2018-05-31T12:29:25.985Z,3015
2018-05-31T12:30:35.477Z,3095
2018-05-31T12:31:45.502Z,3070
2018-05-31T12:32:55.500Z,3065
2018-05-31T12:34:05.513Z,3215
2018-05-31T12:35:15.509Z,3180
2018-05-31T12:36:25.242Z,3150
2018-05-31T12:37:34.733Z,3180
2018-05-31T12:38:44.476Z,3230
2018-05-31T12:39:54.218Z,3200
2018-05-31T12:41:03.693Z,3170
2018-05-31T12:42:13.451Z,3140
2018-05-31T12:43:23.456Z,3145
2018-05-31T12:44:33.457Z,3245
2018-05-31T12:45:43.468Z,3230
2018-05-31T12:46:53.521Z,2050
2018-05-31T12:48:03.592Z,1275
2018-05-31T12:49:13.599Z,2710
2018-05-31T12:50:23.639Z,2900
2018-05-31T12:51:33.658Z,3085
2018-05-31T12:52:43.387Z,3185
2018-05-31T12:53:53.514Z,3160
2018-05-31T12:55:03.519Z,3155
2018-05-31T12:56:13.520Z,3290
2018-05-31T12:57:23.515Z,3270
2018-05-31T12:58:33.523Z,3385
2018-05-31T12:59:43.531Z,3375
2018-05-31T13:00:53.523Z,2590
2018-05-31T13:02:03.548Z,3085
2018-05-31T13:03:13.312Z,3080
2018-05-31T13:04:22.269Z,3145
2018-05-31T13:05:32.023Z,3085
2018-05-31T13:06:42.044Z,3090
2018-05-31T13:07:51.782Z,3160
2018-05-31T13:09:01.508Z,3100
2018-05-31T13:10:11.247Z,3125
2018-05-31T13:11:21.257Z,3070
2018-05-31T13:12:31.262Z,1090
2018-05-31T13:13:41.428Z,1000
2018-05-31T13:14:51.225Z,940
2018-05-31T13:16:00.974Z,915
2018-05-31T13:17:10.992Z,930
2018-05-31T13:18:21.003Z,965
2018-05-31T13:19:30.996Z,980
2018-05-31T13:20:41.001Z,1030
2018-05-31T13:21:51.087Z,1085
2018-05-31T13:23:01.136Z,1130
2018-05-31T13:24:11.150Z,1180
2018-05-31T13:25:21.142Z,1255
2018-05-31T13:26:30.854Z,2350
2018-05-31T13:27:40.595Z,3115
2018-05-31T13:28:50.652Z,2900
2018-05-31T13:30:00.640Z,1155
2018-05-31T13:31:10.683Z,1130
2018-05-31T13:32:20.738Z,2840
2018-05-31T13:33:31.033Z,1045
2018-05-31T13:34:40.512Z,980
2018-05-31T13:35:50.494Z,1000
2018-05-31T13:37:00.481Z,2370
2018-05-31T13:38:10.217Z,1090
2018-05-31T13:39:20.210Z,2840
2018-05-31T13:40:29.938Z,3110
2018-05-31T13:41:39.681Z,3065
2018-05-31T13:42:49.402Z,2970
2018-05-31T13:43:59.145Z,1350
2018-05-31T13:45:08.633Z,2970
2018-05-31T13:46:18.395Z,3090
2018-05-31T13:47:28.394Z,1990
2018-05-31T13:48:38.313Z,1130
2018-05-31T13:49:48.350Z,1210
2018-05-31T13:50:57.834Z,2960
2018-05-31T13:52:07.568Z,2965
2018-05-31T13:53:17.068Z,2840
2018-05-31T13:54:26.280Z,2490
2018-05-31T13:55:36.029Z,2490
2018-05-31T13:56:46.033Z,1195
2018-05-31T13:57:55.794Z,1255
2018-05-31T13:59:05.577Z,1045
2018-05-31T14:00:15.633Z,2390
2018-05-31T14:01:25.684Z,2640
2018-05-31T14:02:35.704Z,2655
2018-05-31T14:03:45.723Z,2745
2018-05-31T14:04:55.468Z,1040
2018-05-31T14:06:05.208Z,1080
2018-05-31T14:07:15.192Z,1170
2018-05-31T14:08:24.698Z,2575
2018-05-31T14:09:35.082Z,2715
2018-05-31T14:10:45.134Z,2800
2018-05-31T14:11:54.867Z,2865
2018-05-31T14:13:04.612Z,2840
2018-05-31T14:14:14.364Z,2695
2018-05-31T14:15:24.396Z,2570
2018-05-31T14:16:34.397Z,2540
2018-05-31T14:17:44.149Z,2605
2018-05-31T14:18:53.885Z,2690
2018-05-31T14:20:03.355Z,2670
2018-05-31T14:21:13.102Z,2670
2018-05-31T14:22:22.584Z,2785
2018-05-31T14:23:32.569Z,2880
2018-05-31T14:24:42.363Z,2875
2018-05-31T14:25:52.358Z,2800
2018-05-31T14:27:01.836Z,2725
2018-05-31T14:28:11.879Z,2720
2018-05-31T14:29:20.772Z,2685
2018-05-31T14:30:30.790Z,2720
2018-05-31T14:31:40.540Z,2830
2018-05-31T14:32:49.755Z,2875
2018-05-31T14:33:59.232Z,2845
2018-05-31T14:35:08.974Z,2790
2018-05-31T14:36:18.699Z,2690
2018-05-31T14:37:27.921Z,2655
2018-05-31T14:38:37.931Z,2610
2018-05-31T14:39:47.404Z,2560
2018-05-31T14:40:56.878Z,2585
2018-05-31T14:42:06.636Z,2465
2018-05-31T14:43:16.907Z,2430
2018-05-31T14:44:26.654Z,2530
2018-05-31T14:45:36.400Z,2650
2018-05-31T14:46:46.409Z,2645
2018-05-31T14:47:56.152Z,2605
2018-05-31T14:49:06.190Z,2625
2018-05-31T14:50:15.980Z,2705
2018-05-31T14:51:25.199Z,2635
2018-05-31T14:52:34.691Z,2405
2018-05-31T14:53:44.462Z,2595
2018-05-31T14:54:53.953Z,2530
2018-05-31T14:56:03.172Z,2540
2018-05-31T14:57:12.896Z,2525
2018-05-31T14:58:22.904Z,2460
2018-05-31T14:59:32.921Z,2430
2018-05-31T15:00:42.707Z,2435
2018-05-31T15:01:52.208Z,2490
2018-05-31T15:03:01.942Z,2465
2018-05-31T15:04:12.236Z,2375
2018-05-31T15:05:22.004Z,2360
2018-05-31T15:06:31.735Z,2345
2018-05-31T15:07:41.469Z,2290
2018-05-31T15:08:50.953Z,2205
2018-05-31T15:10:00.672Z,2170
2018-05-31T15:11:10.149Z,2155
2018-05-31T15:12:20.151Z,2100
2018-05-31T15:13:29.892Z,2075
2018-05-31T15:14:39.630Z,2085
2018-05-31T15:15:49.097Z,2060
2018-05-31T15:16:58.822Z,2000
2018-05-31T15:18:08.556Z,1935
2018-05-31T15:19:18.032Z,1090
2018-05-31T15:20:27.748Z,990
2018-05-31T15:21:37.216Z,840
2018-05-31T15:22:46.945Z,830
2018-05-31T15:23:56.957Z,1050
2018-05-31T15:25:06.701Z,1670
2018-05-31T15:26:16.939Z,1725
2018-05-31T15:27:26.420Z,1510
2018-05-31T15:28:36.135Z,935
2018-05-31T15:29:46.127Z,760
2018-05-31T15:30:55.864Z,735
2018-05-31T15:32:05.382Z,710
2018-05-31T15:33:15.121Z,695
2018-05-31T15:34:25.107Z,670
2018-05-31T15:35:35.183Z,645
2018-05-31T15:36:44.923Z,615
2018-05-31T15:37:54.391Z,585
2018-05-31T15:39:04.393Z,550
2018-05-31T15:40:14.373Z,530
2018-05-31T15:41:24.363Z,510
2018-05-31T15:42:34.345Z,495
2018-05-31T15:43:43.826Z,485
2018-05-31T15:44:53.555Z,460
2018-05-31T15:46:03.017Z,440
2018-05-31T15:47:12.752Z,420
2018-05-31T15:48:22.734Z,405
2018-05-31T15:49:32.480Z,390
2018-05-31T15:50:41.969Z,370
2018-05-31T15:51:51.989Z,345
2018-05-31T15:53:01.725Z,320
2018-05-31T15:54:11.727Z,300
2018-05-31T15:55:21.214Z,285
2018-05-31T15:56:30.968Z,280
2018-05-31T15:57:40.949Z,275
2018-05-31T15:58:50.684Z,275
2018-05-31T16:00:00.407Z,275
2018-05-31T16:01:09.887Z,275
2018-05-31T16:02:19.354Z,275